Time;durP1;ratioP1;P1;durP2;ratioP2;P2;SDS_P1;SDS_P2;PMS_P1;PMS_P2;Temp;Humidity;BMP_temperature;BMP_pressure;BME280_temperature;BME280_humidity;BME280_pressure;Samples;Min_cycle;Max_cycle;Signal;HPM_P1;HPM_P2
2023/06/02 00:01:02;;;;;;;11.83;2.23;;;10.10;81.50;;;;;;4914753;29;20047;-67
2023/06/02 00:03:33;;;;;;;12.10;2.30;;;10.10;81.50;;;;;;4914076;29;20094;-67
2023/06/02 00:05:59;;;;;;;10.90;2.15;;;10.20;81.50;;;;;;4944974;28;20039;-67
2023/06/02 00:08:26;;;;;;;15.15;2.80;;;10.10;81.80;;;;;;4936723;29;20121;-67
2023/06/02 00:10:52;;;;;;;13.48;1.80;;;10.10;81.90;;;;;;4938204;29;20047;-67
2023/06/02 00:13:19;;;;;;;15.40;2.03;;;10.10;81.90;;;;;;4932080;29;20206;-67
2023/06/02 00:15:45;;;;;;;12.52;2.20;;;10.10;82.20;;;;;;4930726;29;20048;-67
2023/06/02 00:18:11;;;;;;;12.20;1.90;;;10.10;82.20;;;;;;4930459;29;20044;-67
2023/06/02 00:20:37;;;;;;;12.47;2.43;;;10.10;82.20;;;;;;4938312;29;20496;-67
2023/06/02 00:23:03;;;;;;;14.68;2.17;;;10.10;81.80;;;;;;4931172;29;20058;-67
2023/06/02 00:25:32;;;;;;;10.85;1.90;;;10.10;81.50;;;;;;4941731;29;20071;-67
2023/06/02 00:27:58;;;;;;;10.48;1.65;;;10.10;81.10;;;;;;4938425;29;20114;-67
2023/06/02 00:30:24;;;;;;;9.47;1.97;;;10.10;81.10;;;;;;4930868;29;20048;-67
2023/06/02 00:32:50;;;;;;;12.23;1.70;;;10.10;81.30;;;;;;4932425;29;20078;-67
2023/06/02 00:35:15;;;;;;;16.00;2.03;;;10.10;81.40;;;;;;4933172;29;20440;-67
2023/06/02 00:37:41;;;;;;;12.90;2.30;;;10.10;81.90;;;;;;4931254;29;20103;-67
2023/06/02 00:40:07;;;;;;;13.03;1.80;;;10.10;81.90;;;;;;4935478;29;20419;-67
2023/06/02 00:42:33;;;;;;;12.77;2.10;;;10.10;82.10;;;;;;4930299;29;20098;-67
2023/06/02 00:44:59;;;;;;;9.43;1.83;;;10.10;82.30;;;;;;4933580;29;20491;-67
2023/06/02 00:47:25;;;;;;;11.80;2.00;;;10.10;82.00;;;;;;4930758;29;20047;-67
2023/06/02 00:49:50;;;;;;;17.47;2.73;;;10.10;81.90;;;;;;4933431;28;20031;-67
2023/06/02 00:52:18;;;;;;;13.23;2.07;;;10.10;82.00;;;;;;4930387;29;20056;-67
2023/06/02 00:54:44;;;;;;;16.92;2.15;;;10.10;82.10;;;;;;4930794;29;20036;-67
2023/06/02 00:57:10;;;;;;;12.13;2.50;;;10.10;82.40;;;;;;4931078;29;20385;-67
2023/06/02 00:59:39;;;;;;;11.97;2.07;;;10.10;82.40;;;;;;4931040;29;20040;-67
2023/06/02 01:02:05;;;;;;;11.80;2.00;;;10.10;82.90;;;;;;4929980;29;20476;-67
2023/06/02 01:04:31;;;;;;;16.90;2.43;;;10.10;83.10;;;;;;4938185;29;20071;-69
2023/06/02 01:07:02;;;;;;;12.82;2.40;;;10.10;83.40;;;;;;4932394;29;20384;-68
2023/06/02 01:09:29;;;;;;;15.98;2.67;;;10.10;83.60;;;;;;4930873;29;20269;-68
2023/06/02 01:11:55;;;;;;;13.20;2.03;;;10.10;83.70;;;;;;4936771;29;20143;-68
2023/06/02 01:14:22;;;;;;;12.77;2.22;;;10.00;83.60;;;;;;4929722;29;20130;-68
2023/06/02 01:16:49;;;;;;;14.70;1.80;;;10.10;83.90;;;;;;4935404;29;20079;-68
2023/06/02 01:19:20;;;;;;;14.63;2.47;;;10.00;83.80;;;;;;4929587;29;20130;-68
2023/06/02 01:21:57;;;;;;;13.65;2.88;;;10.10;84.10;;;;;;4933696;29;20098;-68
2023/06/02 01:24:40;;;;;;;11.90;2.72;;;10.10;84.20;;;;;;4930634;29;20056;-68
2023/06/02 01:27:07;;;;;;;16.73;1.95;;;10.10;84.10;;;;;;4925242;29;20098;-68
2023/06/02 01:29:35;;;;;;;13.70;2.10;;;10.10;84.20;;;;;;4929525;29;20066;-68
2023/06/02 01:32:09;;;;;;;10.88;2.05;;;10.10;84.40;;;;;;4935091;29;20092;-68
2023/06/02 01:34:43;;;;;;;15.85;2.25;;;10.00;84.50;;;;;;4929598;29;20069;-68
2023/06/02 01:37:11;;;;;;;13.88;2.08;;;10.00;84.80;;;;;;4930477;29;20047;-68
2023/06/02 01:39:38;;;;;;;14.60;2.40;;;10.00;84.70;;;;;;4929971;29;20134;-68
2023/06/02 01:42:05;;;;;;;17.58;2.40;;;10.00;84.20;;;;;;4930139;29;20055;-68
2023/06/02 01:44:31;;;;;;;10.82;2.08;;;10.00;84.10;;;;;;4932540;29;20134;-68
2023/06/02 01:46:57;;;;;;;14.32;2.83;;;10.00;83.70;;;;;;4930515;29;20523;-68
2023/06/02 01:49:23;;;;;;;13.05;2.63;;;10.00;83.90;;;;;;4938880;28;20135;-67
2023/06/02 01:51:49;;;;;;;17.70;2.80;;;9.90;84.10;;;;;;4929843;29;20474;-68
2023/06/02 01:54:15;;;;;;;19.23;2.10;;;9.90;84.20;;;;;;4930876;29;20054;-68
2023/06/02 01:56:41;;;;;;;11.88;2.50;;;9.80;84.20;;;;;;4930303;29;20343;-68
2023/06/02 01:59:07;;;;;;;13.80;2.07;;;9.80;84.10;;;;;;4929820;29;20455;-68
2023/06/02 02:01:33;;;;;;;11.83;2.47;;;9.80;84.10;;;;;;4929978;29;20519;-68
2023/06/02 02:04:00;;;;;;;11.18;1.90;;;9.80;84.70;;;;;;4933116;29;20047;-68
2023/06/02 02:06:32;;;;;;;11.95;2.30;;;9.70;85.30;;;;;;4933479;29;20071;-68
2023/06/02 02:08:59;;;;;;;16.27;3.05;;;9.70;85.80;;;;;;4933538;29;20098;-68
2023/06/02 02:11:28;;;;;;;18.38;3.03;;;9.70;85.80;;;;;;4933223;29;20043;-68
2023/06/02 02:13:54;;;;;;;16.20;2.13;;;9.70;85.80;;;;;;4932727;29;20168;-68
2023/06/02 02:16:20;;;;;;;10.60;2.80;;;9.70;85.80;;;;;;4939132;29;20499;-68
2023/06/02 02:18:46;;;;;;;16.52;2.67;;;9.70;86.00;;;;;;4933261;29;20497;-68
2023/06/02 02:21:15;;;;;;;13.97;2.73;;;9.60;87.20;;;;;;4939481;29;20126;-68
2023/06/02 02:23:40;;;;;;;17.55;2.80;;;9.60;87.00;;;;;;4936417;29;20491;-68
2023/06/02 02:26:06;;;;;;;19.63;3.00;;;9.60;86.80;;;;;;4936120;29;20082;-67
2023/06/02 02:28:32;;;;;;;16.63;2.03;;;9.60;86.40;;;;;;4936655;29;20036;-67
2023/06/02 02:30:58;;;;;;;11.00;2.37;;;9.60;86.60;;;;;;4934103;29;20103;-68
2023/06/02 02:33:24;;;;;;;14.90;2.17;;;9.60;86.60;;;;;;4935482;29;20130;-68
2023/06/02 02:35:53;;;;;;;13.47;2.43;;;9.60;87.00;;;;;;4932959;29;20047;-68
2023/06/02 02:38:19;;;;;;;13.40;2.90;;;9.60;86.90;;;;;;4917808;29;20404;-68
2023/06/02 02:40:45;;;;;;;15.57;2.55;;;9.60;87.00;;;;;;4938554;29;20512;-68
2023/06/02 02:43:11;;;;;;;14.67;2.87;;;9.60;87.20;;;;;;4946733;29;20047;-68
2023/06/02 02:45:37;;;;;;;17.93;2.80;;;9.60;87.10;;;;;;4932595;29;20051;-68
2023/06/02 02:48:03;;;;;;;13.77;2.15;;;9.60;87.30;;;;;;4935755;29;20676;-68
2023/06/02 02:50:28;;;;;;;15.23;3.07;;;9.60;87.60;;;;;;4932609;29;20075;-68
2023/06/02 02:52:55;;;;;;;13.07;1.93;;;9.60;87.40;;;;;;4932178;29;20058;-68
2023/06/02 02:55:21;;;;;;;16.20;2.25;;;9.60;87.60;;;;;;4933232;29;20088;-68
2023/06/02 02:57:47;;;;;;;13.80;3.10;;;9.60;87.70;;;;;;4932184;29;20091;-68
2023/06/02 03:00:13;;;;;;;10.97;2.63;;;9.60;87.40;;;;;;4936851;29;20441;-68
2023/06/02 03:02:39;;;;;;;13.20;2.20;;;9.60;87.30;;;;;;4932612;29;20047;-68
2023/06/02 03:05:06;;;;;;;12.73;1.90;;;9.60;87.20;;;;;;4932626;29;20048;-68
2023/06/02 03:07:34;;;;;;;14.45;2.10;;;9.60;87.40;;;;;;4936749;29;20823;-68
2023/06/02 03:10:00;;;;;;;12.82;2.20;;;9.70;87.10;;;;;;4916046;29;20445;-68
2023/06/02 03:12:26;;;;;;;11.95;2.47;;;9.70;87.00;;;;;;4932665;29;20060;-68
2023/06/02 03:14:52;;;;;;;14.17;2.37;;;9.70;87.10;;;;;;4938576;29;20094;-68
2023/06/02 03:17:20;;;;;;;16.47;3.07;;;9.70;87.10;;;;;;4933521;29;20287;-68
2023/06/02 03:19:45;;;;;;;12.82;2.17;;;9.70;87.10;;;;;;4931565;29;20047;-68
2023/06/02 03:22:11;;;;;;;9.37;2.07;;;9.70;87.20;;;;;;4935670;29;20062;-68
2023/06/02 03:24:37;;;;;;;16.37;3.23;;;9.80;87.40;;;;;;4934150;29;20044;-68
2023/06/02 03:27:03;;;;;;;12.50;2.33;;;9.80;87.90;;;;;;4930895;29;20464;-68
2023/06/02 03:29:29;;;;;;;13.90;2.20;;;9.80;87.80;;;;;;4925988;29;20108;-68
2023/06/02 03:31:55;;;;;;;14.07;2.53;;;9.80;87.80;;;;;;4931397;29;20441;-68
2023/06/02 03:34:22;;;;;;;11.10;2.55;;;9.80;87.90;;;;;;4932788;29;20107;-68
2023/06/02 03:36:48;;;;;;;14.23;2.70;;;9.80;88.10;;;;;;4932415;29;20122;-68
2023/06/02 03:39:14;;;;;;;20.27;2.87;;;9.80;87.80;;;;;;4933020;29;20508;-68
2023/06/02 03:41:40;;;;;;;19.58;2.80;;;9.90;88.00;;;;;;4932851;29;20385;-68
2023/06/02 03:44:06;;;;;;;14.13;2.73;;;9.90;88.20;;;;;;4941061;29;20039;-68
2023/06/02 03:46:32;;;;;;;15.80;2.20;;;9.90;88.10;;;;;;4938358;29;20070;-68
2023/06/02 03:48:59;;;;;;;17.10;2.90;;;9.90;88.70;;;;;;4931005;29;20047;-68
2023/06/02 03:51:25;;;;;;;16.45;2.58;;;9.90;88.90;;;;;;4939314;29;20071;-68
2023/06/02 03:53:50;;;;;;;14.63;2.77;;;9.90;88.80;;;;;;4939280;29;20155;-68
2023/06/02 03:56:17;;;;;;;19.03;2.50;;;9.90;89.60;;;;;;4932696;29;20074;-68
2023/06/02 03:58:42;;;;;;;17.67;2.70;;;9.90;89.30;;;;;;4931640;29;20466;-68
2023/06/02 04:01:08;;;;;;;17.53;2.60;;;10.00;89.60;;;;;;4931450;29;20169;-68
2023/06/02 04:03:37;;;;;;;12.00;2.43;;;10.00;90.10;;;;;;4933633;29;20055;-68
2023/06/02 04:06:05;;;;;;;19.17;3.47;;;10.00;89.60;;;;;;4940134;29;20047;-68
2023/06/02 04:08:32;;;;;;;19.60;2.92;;;10.10;89.80;;;;;;4937778;29;20052;-68
2023/06/02 04:10:58;;;;;;;14.68;2.40;;;10.10;89.90;;;;;;4931910;29;20110;-68
2023/06/02 04:13:24;;;;;;;18.30;2.67;;;10.10;90.00;;;;;;4914502;29;20083;-68
2023/06/02 04:15:50;;;;;;;17.83;2.90;;;10.10;89.90;;;;;;4936371;29;20039;-68
2023/06/02 04:18:15;;;;;;;17.40;2.83;;;10.20;89.80;;;;;;4931631;29;20040;-68
2023/06/02 04:20:41;;;;;;;12.37;2.10;;;10.20;89.50;;;;;;4930393;29;20043;-68
2023/06/02 04:23:07;;;;;;;14.67;1.80;;;10.30;89.70;;;;;;4931284;29;20063;-68
2023/06/02 04:25:32;;;;;;;14.73;2.57;;;10.30;89.20;;;;;;4933059;29;20047;-68
2023/06/02 04:27:58;;;;;;;19.00;2.33;;;10.40;89.40;;;;;;4915785;29;20047;-68
2023/06/02 04:30:24;;;;;;;18.30;2.67;;;10.40;89.40;;;;;;4930885;29;20035;-68
2023/06/02 04:32:50;;;;;;;14.93;2.40;;;10.40;89.50;;;;;;4930605;29;20178;-68
2023/06/02 04:35:16;;;;;;;20.97;3.20;;;10.50;89.30;;;;;;4931043;29;20040;-68
2023/06/02 04:37:44;;;;;;;11.07;2.97;;;10.50;89.40;;;;;;4930666;29;20072;-68
2023/06/02 04:40:10;;;;;;;13.68;2.63;;;10.50;89.50;;;;;;4931754;29;20055;-68
2023/06/02 04:42:38;;;;;;;20.55;2.58;;;10.60;89.40;;;;;;4934511;29;20186;-68
2023/06/02 04:45:11;;;;;;;16.88;2.72;;;10.60;89.70;;;;;;4936264;29;20534;-68
2023/06/02 04:47:38;;;;;;;17.80;2.65;;;10.60;89.70;;;;;;4931280;29;20130;-68
2023/06/02 04:50:06;;;;;;;20.63;2.90;;;10.70;89.30;;;;;;4938417;29;20379;-68
2023/06/02 04:52:32;;;;;;;15.30;3.30;;;10.70;89.10;;;;;;4932499;29;20044;-68
2023/06/02 04:54:58;;;;;;;16.40;2.77;;;10.70;89.20;;;;;;4931019;29;20051;-68
2023/06/02 04:57:23;;;;;;;18.77;2.80;;;10.80;89.00;;;;;;4920551;29;20091;-68
2023/06/02 04:59:49;;;;;;;21.70;3.40;;;10.80;88.90;;;;;;4930797;29;20040;-68
2023/06/02 05:02:15;;;;;;;16.43;2.53;;;10.90;89.10;;;;;;4930133;29;20043;-68
2023/06/02 05:04:40;;;;;;;15.20;2.50;;;10.90;89.50;;;;;;4929793;29;20077;-68
2023/06/02 05:07:07;;;;;;;13.70;2.87;;;11.00;89.50;;;;;;4930523;29;20070;-68
2023/06/02 05:09:33;;;;;;;20.25;4.40;;;11.00;89.20;;;;;;4930217;29;20036;-68
2023/06/02 05:11:59;;;;;;;16.57;3.13;;;11.00;89.50;;;;;;4929887;29;20047;-68
2023/06/02 05:14:25;;;;;;;15.18;2.83;;;11.00;89.40;;;;;;4931781;29;20409;-68
2023/06/02 05:16:51;;;;;;;15.00;3.33;;;11.10;89.50;;;;;;4928385;29;20043;-68
2023/06/02 05:19:16;;;;;;;10.55;3.00;;;11.10;89.60;;;;;;4933604;29;21656;-68
2023/06/02 05:21:42;;;;;;;16.63;3.30;;;11.20;89.60;;;;;;4931831;29;20329;-68
2023/06/02 05:24:08;;;;;;;14.33;2.93;;;11.10;89.70;;;;;;4931470;29;20078;-68
2023/06/02 05:26:33;;;;;;;15.90;2.77;;;11.10;89.60;;;;;;4929992;29;20052;-68
2023/06/02 05:28:59;;;;;;;20.63;3.80;;;11.20;89.50;;;;;;4941009;29;20056;-68
2023/06/02 05:31:25;;;;;;;12.23;2.73;;;11.20;89.60;;;;;;4924421;29;20123;-68
2023/06/02 05:33:51;;;;;;;20.07;2.90;;;11.20;90.00;;;;;;4935682;29;20059;-68
2023/06/02 05:36:16;;;;;;;17.80;2.90;;;11.30;89.90;;;;;;4938883;28;20475;-68
2023/06/02 05:38:43;;;;;;;20.27;3.27;;;11.30;89.80;;;;;;4934571;29;20031;-68
2023/06/02 05:41:12;;;;;;;21.92;3.45;;;11.40;89.50;;;;;;4930819;29;20047;-68
2023/06/02 05:43:38;;;;;;;15.65;3.17;;;11.40;89.70;;;;;;4930326;29;20071;-68
2023/06/02 05:46:04;;;;;;;15.67;2.80;;;11.40;89.70;;;;;;4929927;29;20082;-68
2023/06/02 05:48:30;;;;;;;17.80;3.00;;;11.40;89.50;;;;;;4929510;29;20788;-68
2023/06/02 05:50:55;;;;;;;19.03;3.57;;;11.50;89.90;;;;;;4929522;29;20048;-68
2023/06/02 05:53:21;;;;;;;17.43;2.70;;;11.50;89.90;;;;;;4930174;29;20058;-68
2023/06/02 05:55:47;;;;;;;17.27;3.27;;;11.50;90.20;;;;;;4929914;29;20493;-68
2023/06/02 05:58:13;;;;;;;18.67;2.87;;;11.50;89.90;;;;;;4919771;29;20075;-68
2023/06/02 06:00:38;;;;;;;22.37;3.20;;;11.60;90.10;;;;;;4919602;29;20043;-68
2023/06/02 06:03:04;;;;;;;16.70;2.77;;;11.60;90.00;;;;;;4930593;29;20046;-68
2023/06/02 06:05:30;;;;;;;20.77;3.90;;;11.70;90.00;;;;;;4929278;29;20040;-68
2023/06/02 06:07:56;;;;;;;15.67;2.97;;;11.70;90.10;;;;;;4927329;29;20043;-68
2023/06/02 06:10:23;;;;;;;19.10;3.43;;;11.70;89.90;;;;;;4930929;29;20292;-68
2023/06/02 06:12:48;;;;;;;21.97;4.73;;;11.80;89.90;;;;;;4931122;29;20296;-68
2023/06/02 06:15:14;;;;;;;16.10;2.97;;;11.80;90.90;;;;;;4929172;29;20295;-68
2023/06/02 06:17:49;;;;;;;18.70;3.57;;;11.90;90.50;;;;;;4929847;29;20031;-68
2023/06/02 06:20:15;;;;;;;18.75;3.15;;;11.90;90.50;;;;;;4924554;29;20763;-68
2023/06/02 06:22:42;;;;;;;21.07;3.20;;;12.00;90.50;;;;;;4932106;29;20556;-68
2023/06/02 06:25:08;;;;;;;15.97;2.90;;;12.00;90.70;;;;;;4930036;29;20295;-68
2023/06/02 06:27:34;;;;;;;19.53;3.97;;;12.10;90.50;;;;;;4932750;29;20371;-70
2023/06/02 06:30:00;;;;;;;20.60;4.07;;;12.10;90.60;;;;;;4929682;29;20346;-68
2023/06/02 06:32:26;;;;;;;24.30;3.93;;;12.10;90.80;;;;;;4930092;29;20062;-68
2023/06/02 06:34:51;;;;;;;18.43;4.07;;;12.20;91.00;;;;;;4943653;29;20039;-68
2023/06/02 06:37:17;;;;;;;17.53;3.10;;;12.20;90.90;;;;;;4936249;29;20039;-68
2023/06/02 06:39:43;;;;;;;23.13;3.77;;;12.30;90.90;;;;;;4934521;29;20051;-68
2023/06/02 06:42:08;;;;;;;19.23;3.40;;;12.30;91.30;;;;;;4925121;29;20135;-68
2023/06/02 06:44:34;;;;;;;21.07;3.83;;;12.40;91.20;;;;;;4927108;29;20114;-68
2023/06/02 06:47:00;;;;;;;20.70;3.60;;;12.50;90.60;;;;;;4930955;29;20047;-68
2023/06/02 06:49:25;;;;;;;16.53;3.53;;;12.50;90.80;;;;;;4937864;29;20079;-68
2023/06/02 06:51:52;;;;;;;21.77;4.27;;;12.60;91.00;;;;;;4936952;29;20496;-68
2023/06/02 06:54:18;;;;;;;23.00;3.83;;;12.80;90.30;;;;;;4942241;29;20295;-68
2023/06/02 06:56:45;;;;;;;26.43;4.60;;;12.90;90.20;;;;;;4941307;29;20400;-71
2023/06/02 06:59:12;;;;;;;18.77;4.13;;;13.00;90.20;;;;;;4945916;29;20429;-70
2023/06/02 07:01:39;;;;;;;19.80;3.83;;;13.10;89.90;;;;;;4921453;29;20358;-70
2023/06/02 07:04:05;;;;;;;23.17;4.33;;;13.10;89.80;;;;;;4936659;29;20357;-71
2023/06/02 07:06:32;;;;;;;21.33;4.03;;;13.20;89.60;;;;;;4935864;29;20744;-69
2023/06/02 07:08:58;;;;;;;24.17;4.63;;;13.40;89.70;;;;;;4935476;29;20058;-68
2023/06/02 07:11:23;;;;;;;26.10;4.13;;;13.40;89.30;;;;;;4936384;29;20370;-69
2023/06/02 07:13:50;;;;;;;24.73;4.53;;;13.50;88.90;;;;;;4936331;29;20490;-70
2023/06/02 07:16:16;;;;;;;23.37;4.07;;;13.60;88.60;;;;;;4934626;29;20047;-71
2023/06/02 07:18:41;;;;;;;20.67;3.93;;;13.60;88.60;;;;;;4939224;29;20711;-69
2023/06/02 07:21:07;;;;;;;27.23;4.83;;;13.70;88.60;;;;;;4939941;29;20039;-70
2023/06/02 07:23:33;;;;;;;18.43;3.83;;;13.80;88.50;;;;;;4937096;29;20044;-70
2023/06/02 07:25:58;;;;;;;24.07;4.70;;;13.90;88.20;;;;;;4940503;29;20055;-70
2023/06/02 07:28:24;;;;;;;21.03;3.93;;;14.00;88.00;;;;;;4936551;29;20040;-71
2023/06/02 07:30:53;;;;;;;16.07;4.30;;;14.10;87.60;;;;;;4919856;29;20050;-70
2023/06/02 07:33:19;;;;;;;20.63;4.97;;;14.20;87.30;;;;;;4945893;29;20059;-71
2023/06/02 07:35:45;;;;;;;20.73;3.97;;;14.20;86.60;;;;;;4937338;29;20323;-70
2023/06/02 07:38:12;;;;;;;21.90;4.07;;;14.20;87.10;;;;;;4937440;29;20302;-70
2023/06/02 07:40:37;;;;;;;19.33;3.80;;;14.30;87.40;;;;;;4937903;29;20347;-71
2023/06/02 07:43:03;;;;;;;23.30;4.13;;;14.30;87.10;;;;;;4945034;29;20334;-71
2023/06/02 07:45:29;;;;;;;20.20;4.30;;;14.40;86.40;;;;;;4939499;29;20067;-70
2023/06/02 07:47:56;;;;;;;23.30;4.20;;;14.40;86.00;;;;;;4938908;29;20816;-70
2023/06/02 07:50:22;;;;;;;22.93;3.57;;;14.50;86.40;;;;;;4939791;29;20047;-71
2023/06/02 07:52:47;;;;;;;20.33;4.43;;;14.60;85.90;;;;;;4935531;29;20339;-70
2023/06/02 07:55:13;;;;;;;18.27;4.50;;;14.70;85.60;;;;;;4941070;29;20044;-70
2023/06/02 07:57:39;;;;;;;22.40;4.53;;;14.80;85.30;;;;;;4940723;29;20103;-70
2023/06/02 08:00:16;;;;;;;19.77;4.47;;;15.00;84.90;;;;;;4940471;28;20443;-71
2023/06/02 08:02:43;;;;;;;20.67;4.40;;;15.20;84.70;;;;;;4940183;29;20370;-71
2023/06/02 08:05:09;;;;;;;18.13;3.97;;;15.50;84.40;;;;;;4924729;29;20290;-71
2023/06/02 08:07:35;;;;;;;16.47;3.90;;;15.70;83.10;;;;;;4941500;29;20704;-70
2023/06/02 08:10:01;;;;;;;20.53;4.00;;;16.00;81.80;;;;;;4930191;29;20311;-71
2023/06/02 08:12:28;;;;;;;14.50;3.43;;;16.10;80.10;;;;;;4941058;29;20606;-70
2023/06/02 08:14:54;;;;;;;21.90;4.30;;;16.20;80.70;;;;;;4939533;29;20294;-69
2023/06/02 08:17:19;;;;;;;20.67;4.20;;;16.30;80.30;;;;;;4940444;29;20296;-70
2023/06/02 08:19:45;;;;;;;13.93;3.57;;;16.40;79.20;;;;;;4940064;29;20116;-69
2023/06/02 08:22:11;;;;;;;18.80;4.53;;;16.40;79.20;;;;;;4932186;29;20055;-69
2023/06/02 08:24:37;;;;;;;16.03;4.07;;;16.50;78.80;;;;;;4932799;29;20047;-69
2023/06/02 08:27:04;;;;;;;15.03;3.50;;;16.50;78.00;;;;;;4935508;29;20052;-69
2023/06/02 08:29:32;;;;;;;22.40;4.70;;;16.60;78.30;;;;;;4935132;29;20322;-69
2023/06/02 08:31:58;;;;;;;21.87;4.17;;;16.70;77.50;;;;;;4931415;29;20319;-69
2023/06/02 08:34:24;;;;;;;18.50;3.57;;;16.80;77.60;;;;;;4935931;29;20381;-69
2023/06/02 08:36:57;;;;;;;21.43;4.50;;;16.80;77.10;;;;;;4932655;29;20040;-69
2023/06/02 08:39:25;;;;;;;17.90;3.27;;;17.00;76.80;;;;;;4935482;29;20042;-69
2023/06/02 08:41:53;;;;;;;25.80;4.30;;;17.10;75.90;;;;;;4931425;29;20434;-69
2023/06/02 08:44:19;;;;;;;17.47;3.80;;;17.00;75.70;;;;;;4932710;29;20291;-69
2023/06/02 08:46:51;;;;;;;21.07;4.03;;;17.10;76.80;;;;;;4935840;29;20310;-70
2023/06/02 08:49:20;;;;;;;16.87;3.43;;;17.30;75.70;;;;;;4938377;29;20051;-70
2023/06/02 08:51:51;;;;;;;15.87;3.37;;;17.40;73.70;;;;;;4939939;29;20283;-70
2023/06/02 08:54:20;;;;;;;18.53;3.60;;;17.70;75.20;;;;;;4936745;29;20278;-70
2023/06/02 08:56:49;;;;;;;17.83;3.63;;;18.00;74.00;;;;;;4938411;29;20314;-70
2023/06/02 08:59:19;;;;;;;16.77;3.00;;;18.10;72.00;;;;;;4928238;29;20784;-70
2023/06/02 09:01:47;;;;;;;18.37;3.37;;;18.00;72.00;;;;;;4934916;29;20320;-70
2023/06/02 09:04:13;;;;;;;21.00;3.63;;;17.90;71.70;;;;;;4930978;29;20342;-70
2023/06/02 09:06:38;;;;;;;18.50;3.37;;;17.80;71.80;;;;;;4916594;29;20311;-69
2023/06/02 09:09:04;;;;;;;14.07;3.50;;;17.90;72.90;;;;;;4937820;29;20283;-70
2023/06/02 09:11:31;;;;;;;18.33;3.33;;;18.00;72.20;;;;;;4938173;29;20071;-70
2023/06/02 09:13:57;;;;;;;17.63;4.37;;;18.00;71.90;;;;;;4941830;29;20055;-70
2023/06/02 09:16:35;;;;;;;14.27;3.23;;;18.10;73.30;;;;;;4940526;29;20302;-70
2023/06/02 09:19:01;;;;;;;11.93;2.93;;;18.20;71.40;;;;;;4940371;29;20335;-70
2023/06/02 09:21:28;;;;;;;15.53;3.77;;;18.20;72.20;;;;;;4932537;29;20771;-70
2023/06/02 09:23:55;;;;;;;14.77;3.40;;;18.40;70.70;;;;;;4959661;28;20031;-70
2023/06/02 09:26:23;;;;;;;18.23;3.30;;;18.50;70.20;;;;;;4941328;29;20287;-70
2023/06/02 09:29:18;;;;;;;17.50;3.37;;;18.50;70.50;;;;;;4943070;29;20287;-70
2023/06/02 09:31:58;;;;;;;16.98;3.15;;;18.60;69.30;;;;;;4924420;29;20283;-70
2023/06/02 09:34:34;;;;;;;15.27;3.10;;;18.80;69.80;;;;;;4937975;29;20050;-70
2023/06/02 09:37:06;;;;;;;12.23;2.57;;;19.00;68.80;;;;;;4942566;29;20290;-70
2023/06/02 09:39:34;;;;;;;18.23;3.40;;;19.30;68.00;;;;;;4927384;29;20845;-70
2023/06/02 09:42:00;;;;;;;12.80;3.07;;;19.30;67.60;;;;;;4928207;29;20291;-70
2023/06/02 09:44:26;;;;;;;13.60;3.30;;;19.30;66.70;;;;;;4941202;29;20311;-70
2023/06/02 09:46:53;;;;;;;14.77;2.43;;;19.10;67.20;;;;;;4937160;29;20807;-70
2023/06/02 09:49:19;;;;;;;11.70;2.03;;;19.10;66.50;;;;;;4934837;29;21056;-70
2023/06/02 09:51:45;;;;;;;7.43;1.77;;;19.20;66.30;;;;;;4928921;29;20726;-70
2023/06/02 09:54:11;;;;;;;11.30;2.43;;;19.40;64.70;;;;;;4944986;29;20047;-70
2023/06/02 09:56:38;;;;;;;6.90;1.63;;;19.60;65.00;;;;;;4937762;29;20640;-70
2023/06/02 09:59:08;;;;;;;5.40;1.73;;;19.80;62.20;;;;;;4917800;29;20330;-70
2023/06/02 10:01:37;;;;;;;5.77;1.17;;;19.80;60.50;;;;;;4932981;29;20295;-70
2023/06/02 10:04:05;;;;;;;6.43;1.30;;;19.70;60.60;;;;;;4958514;28;20323;-70
2023/06/02 10:06:52;;;;;;;7.67;1.20;;;19.60;57.00;;;;;;4934317;29;20291;-70
2023/06/02 10:09:57;;;;;;;8.77;1.20;;;19.50;56.60;;;;;;4931033;29;20334;-70
2023/06/02 10:12:42;;;;;;;6.25;1.27;;;19.40;57.80;;;;;;4953483;28;20306;-70
2023/06/02 10:15:16;;;;;;;4.13;0.80;;;19.50;56.90;;;;;;4921864;29;20538;-70
2023/06/02 10:18:06;;;;;;;6.25;0.93;;;19.50;57.40;;;;;;4945697;29;20180;-70
2023/06/02 10:21:10;;;;;;;7.90;1.40;;;19.70;55.80;;;;;;4922868;29;20058;-70
2023/06/02 10:23:57;;;;;;;7.70;1.20;;;19.70;53.80;;;;;;4927047;29;20412;-70
2023/06/02 10:26:51;;;;;;;5.33;1.00;;;19.50;55.00;;;;;;4929397;29;20291;-71
2023/06/02 10:29:17;;;;;;;7.20;1.03;;;19.50;54.60;;;;;;4930584;29;20425;-70
2023/06/02 10:31:44;;;;;;;5.70;1.10;;;19.50;55.00;;;;;;4929568;29;20578;-71
2023/06/02 10:34:37;;;;;;;8.50;1.03;;;19.60;54.20;;;;;;4937751;29;20110;-70
2023/06/02 10:37:10;;;;;;;3.90;1.20;;;19.60;53.10;;;;;;4943935;29;20043;-70
2023/06/02 10:39:41;;;;;;;3.07;1.10;;;19.70;52.70;;;;;;4935508;29;20220;-71
2023/06/02 10:42:09;;;;;;;4.93;1.00;;;19.70;52.30;;;;;;4937728;29;20450;-71
2023/06/02 10:44:35;;;;;;;5.10;0.93;;;19.80;53.30;;;;;;4937955;29;20143;-71
2023/06/02 10:47:19;;;;;;;5.77;1.17;;;19.90;52.10;;;;;;4940154;29;20130;-71
2023/06/02 10:50:04;;;;;;;6.77;0.80;;;20.00;50.20;;;;;;4944976;29;20044;-72
2023/06/02 10:52:32;;;;;;;3.23;0.70;;;19.90;51.30;;;;;;4926299;29;20395;-72
2023/06/02 10:55:16;;;;;;;7.10;0.80;;;19.90;51.30;;;;;;4946707;29;20736;-72
2023/06/02 10:58:03;;;;;;;5.83;0.77;;;19.90;49.60;;;;;;4947196;29;20050;-71
2023/06/02 11:00:43;;;;;;;4.80;0.80;;;19.90;48.90;;;;;;4936032;29;20111;-72
2023/06/02 11:03:15;;;;;;;5.23;0.97;;;19.90;49.90;;;;;;4927182;29;20044;-71
2023/06/02 11:05:41;;;;;;;2.60;0.80;;;20.00;49.10;;;;;;4942538;29;20503;-77
2023/06/02 11:08:18;;;;;;;5.23;1.00;;;20.00;50.40;;;;;;4943975;29;20558;-71
2023/06/02 11:10:47;;;;;;;3.70;0.90;;;20.10;48.60;;;;;;4943933;29;20051;-72
2023/06/02 11:13:14;;;;;;;4.50;1.00;;;20.00;48.90;;;;;;4941232;29;20052;-71
2023/06/02 11:15:58;;;;;;;7.57;0.83;;;20.00;49.20;;;;;;4953798;28;20054;-72
2023/06/02 11:18:28;;;;;;;2.77;0.63;;;20.10;48.50;;;;;;4945464;29;20102;-71
2023/06/02 11:20:55;;;;;;;5.83;0.83;;;20.00;47.30;;;;;;4948955;29;20078;-72
2023/06/02 11:23:22;;;;;;;3.93;0.87;;;20.00;47.30;;;;;;4930814;29;20054;-72
2023/06/02 11:25:50;;;;;;;4.43;0.60;;;19.90;46.80;;;;;;4946274;29;20043;-73
2023/06/02 11:28:22;;;;;;;2.67;0.83;;;19.90;46.90;;;;;;4927710;29;20048;-72
2023/06/02 11:31:09;;;;;;;5.23;0.70;;;19.80;47.30;;;;;;4947320;29;20055;-72
2023/06/02 11:33:37;;;;;;;2.43;0.60;;;19.90;45.30;;;;;;4929703;28;20036;-72
2023/06/02 11:36:08;;;;;;;2.53;0.60;;;19.90;45.80;;;;;;4936103;29;20067;-72
2023/06/02 11:38:35;;;;;;;4.00;0.40;;;20.10;45.60;;;;;;4936204;29;20056;-72
2023/06/02 11:41:23;;;;;;;2.40;0.50;;;20.10;44.00;;;;;;4933717;29;20122;-72
2023/06/02 11:43:50;;;;;;;2.80;0.60;;;20.20;44.80;;;;;;4917519;29;20047;-72
2023/06/02 11:46:18;;;;;;;4.27;0.50;;;20.20;44.80;;;;;;4940602;29;20090;-72
2023/06/02 11:48:45;;;;;;;5.40;0.90;;;20.30;44.50;;;;;;4931508;29;20048;-70
2023/06/02 11:51:15;;;;;;;3.07;0.60;;;20.30;43.90;;;;;;4933219;29;20107;-69
2023/06/02 11:53:45;;;;;;;2.90;0.87;;;20.30;44.20;;;;;;4917169;29;20044;-70
2023/06/02 11:56:15;;;;;;;2.10;0.50;;;20.30;43.70;;;;;;4942372;29;20103;-69
2023/06/02 11:58:42;;;;;;;2.77;0.40;;;20.30;43.80;;;;;;4934526;29;20571;-69
2023/06/02 12:01:12;;;;;;;2.93;0.50;;;20.40;42.00;;;;;;4934282;29;20418;-70
2023/06/02 12:03:38;;;;;;;4.40;0.90;;;20.40;43.30;;;;;;4942639;29;20054;-69
2023/06/02 12:06:14;;;;;;;2.27;0.40;;;20.40;44.60;;;;;;4943520;29;20568;-69
2023/06/02 12:08:41;;;;;;;5.40;0.70;;;20.50;42.20;;;;;;4933850;29;20067;-69
2023/06/02 12:11:22;;;;;;;3.83;0.67;;;20.60;42.10;;;;;;4924811;29;20043;-70
2023/06/02 12:14:02;;;;;;;2.00;0.40;;;20.50;42.50;;;;;;4945191;29;20477;-69
2023/06/02 12:16:28;;;;;;;2.80;0.50;;;20.60;42.60;;;;;;4933931;29;20079;-69
2023/06/02 12:18:55;;;;;;;4.60;0.70;;;20.50;41.00;;;;;;4939225;29;20122;-68
2023/06/02 12:21:26;;;;;;;5.40;0.57;;;20.40;41.80;;;;;;4919425;29;20535;-69
2023/06/02 12:23:54;;;;;;;5.00;0.83;;;20.40;41.70;;;;;;4935244;29;20519;-68
2023/06/02 12:26:21;;;;;;;2.00;0.43;;;20.40;42.40;;;;;;4934325;29;20047;-69
2023/06/02 12:28:49;;;;;;;3.43;0.60;;;20.50;42.20;;;;;;4915018;29;20050;-70
2023/06/02 12:31:18;;;;;;;2.63;0.70;;;20.50;41.80;;;;;;4935075;29;20039;-70
2023/06/02 12:33:45;;;;;;;2.47;0.70;;;20.50;43.10;;;;;;4941333;29;20102;-69
2023/06/02 12:36:14;;;;;;;5.70;0.90;;;20.60;42.80;;;;;;4938095;29;20059;-70
2023/06/02 12:38:40;;;;;;;2.70;0.50;;;20.60;43.80;;;;;;4941349;29;20456;-71
2023/06/02 12:41:15;;;;;;;4.70;1.27;;;20.40;44.20;;;;;;4927020;29;20055;-70
2023/06/02 12:43:41;;;;;;;5.77;1.00;;;20.30;43.50;;;;;;4943290;29;20062;-70
2023/06/02 12:46:08;;;;;;;3.87;0.90;;;20.30;45.80;;;;;;4945090;28;20086;-70